sensor_id;sensor_type;location;lat;lon;timestamp;pressure;altitude;pressure_sealevel;temperature;humidity
66681;BME280;53575;51.366;12.350;2023-04-20T00:01:40;100637.72;;;4.86;100.00
66681;BME280;53575;51.366;12.350;2023-04-20T00:04:06;100639.53;;;4.91;100.00
66681;BME280;53575;51.366;12.350;2023-04-20T00:06:32;100630.09;;;4.93;100.00
66681;BME280;53575;51.366;12.350;2023-04-20T00:08:59;100635.22;;;4.91;100.00
66681;BME280;53575;51.366;12.350;2023-04-20T00:11:24;100632.47;;;4.83;100.00
66681;BME280;53575;51.366;12.350;2023-04-20T00:13:50;100626.69;;;4.95;100.00
66681;BME280;53575;51.366;12.350;2023-04-20T00:16:17;100624.31;;;5.04;100.00
66681;BME280;53575;51.366;12.350;2023-04-20T00:18:45;100622.44;;;4.97;100.00
66681;BME280;53575;51.366;12.350;2023-04-20T00:21:11;100631.75;;;4.89;100.00
66681;BME280;53575;51.366;12.350;2023-04-20T00:23:37;100626.78;;;5.00;100.00
66681;BME280;53575;51.366;12.350;2023-04-20T00:26:03;100624.00;;;4.91;100.00
66681;BME280;53575;51.366;12.350;2023-04-20T00:28:28;100619.63;;;4.88;100.00
66681;BME280;53575;51.366;12.350;2023-04-20T00:30:54;100620.97;;;4.71;100.00
66681;BME280;53575;51.366;12.350;2023-04-20T00:33:19;100621.88;;;4.73;100.00
66681;BME280;53575;51.366;12.350;2023-04-20T00:35:44;100616.50;;;4.63;100.00
66681;BME280;53575;51.366;12.350;2023-04-20T00:38:10;100614.28;;;4.80;100.00
66681;BME280;53575;51.366;12.350;2023-04-20T00:40:35;100611.59;;;4.76;100.00
66681;BME280;53575;51.366;12.350;2023-04-20T00:43:11;100610.88;;;4.83;100.00
66681;BME280;53575;51.366;12.350;2023-04-20T00:45:36;100598.97;;;4.91;100.00
66681;BME280;53575;51.366;12.350;2023-04-20T00:48:03;100596.97;;;4.78;100.00
66681;BME280;53575;51.366;12.350;2023-04-20T00:50:29;100595.97;;;4.71;100.00
66681;BME280;53575;51.366;12.350;2023-04-20T00:52:55;100595.81;;;4.65;100.00
66681;BME280;53575;51.366;12.350;2023-04-20T00:55:21;100593.22;;;4.63;100.00
66681;BME280;53575;51.366;12.350;2023-04-20T00:57:47;100594.84;;;4.60;100.00
66681;BME280;53575;51.366;12.350;2023-04-20T01:00:13;100596.81;;;4.70;100.00
66681;BME280;53575;51.366;12.350;2023-04-20T01:02:39;100593.03;;;4.56;100.00
66681;BME280;53575;51.366;12.350;2023-04-20T01:05:05;100593.41;;;4.73;100.00
66681;BME280;53575;51.366;12.350;2023-04-20T01:07:31;100596.13;;;4.77;100.00
66681;BME280;53575;51.366;12.350;2023-04-20T01:09:57;100593.53;;;4.77;100.00
66681;BME280;53575;51.366;12.350;2023-04-20T01:12:22;100598.03;;;4.86;100.00
66681;BME280;53575;51.366;12.350;2023-04-20T01:14:47;100587.84;;;4.95;100.00
66681;BME280;53575;51.366;12.350;2023-04-20T01:17:13;100598.88;;;4.86;100.00
66681;BME280;53575;51.366;12.350;2023-04-20T01:19:39;100592.59;;;4.75;100.00
66681;BME280;53575;51.366;12.350;2023-04-20T01:22:06;100590.63;;;4.63;100.00
66681;BME280;53575;51.366;12.350;2023-04-20T01:24:32;100585.97;;;4.49;100.00
66681;BME280;53575;51.366;12.350;2023-04-20T01:26:58;100589.88;;;4.69;100.00
66681;BME280;53575;51.366;12.350;2023-04-20T01:29:23;100587.97;;;4.60;100.00
66681;BME280;53575;51.366;12.350;2023-04-20T01:31:49;100587.28;;;4.69;100.00
66681;BME280;53575;51.366;12.350;2023-04-20T01:34:14;100585.47;;;4.65;100.00
66681;BME280;53575;51.366;12.350;2023-04-20T01:36:42;100586.38;;;4.67;100.00
66681;BME280;53575;51.366;12.350;2023-04-20T01:39:07;100582.94;;;4.67;100.00
66681;BME280;53575;51.366;12.350;2023-04-20T01:41:34;100578.53;;;4.64;100.00
66681;BME280;53575;51.366;12.350;2023-04-20T01:43:59;100581.41;;;4.76;100.00
66681;BME280;53575;51.366;12.350;2023-04-20T01:46:24;100583.09;;;4.74;100.00
66681;BME280;53575;51.366;12.350;2023-04-20T01:48:50;100577.25;;;4.84;100.00
66681;BME280;53575;51.366;12.350;2023-04-20T01:51:15;100578.25;;;4.91;100.00
66681;BME280;53575;51.366;12.350;2023-04-20T01:53:40;100575.75;;;4.96;100.00
66681;BME280;53575;51.366;12.350;2023-04-20T01:56:06;100580.00;;;4.92;100.00
66681;BME280;53575;51.366;12.350;2023-04-20T01:58:31;100581.72;;;4.92;100.00
66681;BME280;53575;51.366;12.350;2023-04-20T02:00:57;100577.47;;;4.94;100.00
66681;BME280;53575;51.366;12.350;2023-04-20T02:03:22;100580.63;;;4.80;100.00
66681;BME280;53575;51.366;12.350;2023-04-20T02:05:48;100581.63;;;4.87;100.00
66681;BME280;53575;51.366;12.350;2023-04-20T02:08:13;100581.53;;;4.81;100.00
66681;BME280;53575;51.366;12.350;2023-04-20T02:10:38;100576.28;;;4.79;100.00
66681;BME280;53575;51.366;12.350;2023-04-20T02:13:04;100580.63;;;4.80;100.00
66681;BME280;53575;51.366;12.350;2023-04-20T02:15:29;100578.25;;;4.89;100.00
66681;BME280;53575;51.366;12.350;2023-04-20T02:17:55;100569.53;;;4.86;100.00
66681;BME280;53575;51.366;12.350;2023-04-20T02:20:21;100574.81;;;4.91;100.00
66681;BME280;53575;51.366;12.350;2023-04-20T02:22:47;100575.75;;;4.96;100.00
66681;BME280;53575;51.366;12.350;2023-04-20T02:25:13;100570.47;;;4.89;100.00
66681;BME280;53575;51.366;12.350;2023-04-20T02:27:39;100575.44;;;4.80;100.00
66681;BME280;53575;51.366;12.350;2023-04-20T02:30:05;100578.09;;;4.82;100.00
66681;BME280;53575;51.366;12.350;2023-04-20T02:32:30;100571.19;;;4.82;100.00
66681;BME280;53575;51.366;12.350;2023-04-20T02:34:55;100574.34;;;4.69;100.00
66681;BME280;53575;51.366;12.350;2023-04-20T02:37:21;100573.59;;;4.73;100.00
66681;BME280;53575;51.366;12.350;2023-04-20T02:39:46;100582.16;;;4.71;100.00
66681;BME280;53575;51.366;12.350;2023-04-20T02:42:12;100574.31;;;4.68;100.00
66681;BME280;53575;51.366;12.350;2023-04-20T02:44:37;100570.84;;;4.66;100.00
66681;BME280;53575;51.366;12.350;2023-04-20T02:47:03;100579.72;;;4.78;100.00
66681;BME280;53575;51.366;12.350;2023-04-20T02:49:28;100583.59;;;4.58;100.00
66681;BME280;53575;51.366;12.350;2023-04-20T02:51:53;100588.38;;;4.80;100.00
66681;BME280;53575;51.366;12.350;2023-04-20T02:54:19;100585.53;;;4.68;100.00
66681;BME280;53575;51.366;12.350;2023-04-20T02:56:44;100583.78;;;4.67;100.00
66681;BME280;53575;51.366;12.350;2023-04-20T02:59:10;100584.22;;;4.87;100.00
66681;BME280;53575;51.366;12.350;2023-04-20T03:01:35;100574.00;;;4.93;100.00
66681;BME280;53575;51.366;12.350;2023-04-20T03:04:01;100575.84;;;4.99;100.00
66681;BME280;53575;51.366;12.350;2023-04-20T03:06:26;100579.84;;;4.84;100.00
66681;BME280;53575;51.366;12.350;2023-04-20T03:08:52;100578.88;;;4.79;100.00
66681;BME280;53575;51.366;12.350;2023-04-20T03:11:18;100579.13;;;4.92;100.00
66681;BME280;53575;51.366;12.350;2023-04-20T03:13:43;100574.81;;;4.92;100.00
66681;BME280;53575;51.366;12.350;2023-04-20T03:16:08;100567.22;;;5.00;100.00
66681;BME280;53575;51.366;12.350;2023-04-20T03:18:34;100572.38;;;5.00;100.00
66681;BME280;53575;51.366;12.350;2023-04-20T03:21:00;100574.47;;;5.16;100.00
66681;BME280;53575;51.366;12.350;2023-04-20T03:23:25;100571.75;;;5.10;100.00
66681;BME280;53575;51.366;12.350;2023-04-20T03:25:51;100570.03;;;5.10;100.00
66681;BME280;53575;51.366;12.350;2023-04-20T03:28:16;100562.09;;;5.03;100.00
66681;BME280;53575;51.366;12.350;2023-04-20T03:30:41;100562.88;;;4.99;100.00
66681;BME280;53575;51.366;12.350;2023-04-20T03:33:07;100565.22;;;4.86;100.00
66681;BME280;53575;51.366;12.350;2023-04-20T03:35:32;100557.16;;;5.15;100.00
66681;BME280;53575;51.366;12.350;2023-04-20T03:37:58;100563.25;;;5.16;100.00
66681;BME280;53575;51.366;12.350;2023-04-20T03:40:23;100568.84;;;4.95;100.00
66681;BME280;53575;51.366;12.350;2023-04-20T03:42:49;100563.88;;;5.05;100.00
66681;BME280;53575;51.366;12.350;2023-04-20T03:45:14;100572.53;;;5.06;100.00
66681;BME280;53575;51.366;12.350;2023-04-20T03:47:40;100578.31;;;4.93;100.00
66681;BME280;53575;51.366;12.350;2023-04-20T03:50:06;100581.63;;;4.87;100.00
66681;BME280;53575;51.366;12.350;2023-04-20T03:52:32;100576.28;;;4.78;100.00
66681;BME280;53575;51.366;12.350;2023-04-20T03:54:57;100581.31;;;4.72;100.00
66681;BME280;53575;51.366;12.350;2023-04-20T03:57:23;100576.53;;;4.90;100.00
66681;BME280;53575;51.366;12.350;2023-04-20T03:59:48;100583.34;;;4.86;100.00
66681;BME280;53575;51.366;12.350;2023-04-20T04:02:14;100577.53;;;4.57;100.00
66681;BME280;53575;51.366;12.350;2023-04-20T04:04:40;100575.84;;;4.58;100.00
66681;BME280;53575;51.366;12.350;2023-04-20T04:07:05;100583.59;;;4.58;100.00
66681;BME280;53575;51.366;12.350;2023-04-20T04:09:31;100581.13;;;4.62;100.00
66681;BME280;53575;51.366;12.350;2023-04-20T04:11:57;100572.41;;;4.59;100.00
66681;BME280;53575;51.366;12.350;2023-04-20T04:14:22;100582.09;;;4.69;100.00
66681;BME280;53575;51.366;12.350;2023-04-20T04:16:48;100580.34;;;4.68;100.00
66681;BME280;53575;51.366;12.350;2023-04-20T04:19:13;100580.50;;;4.74;100.00
66681;BME280;53575;51.366;12.350;2023-04-20T04:21:39;100591.19;;;4.89;100.00
66681;BME280;53575;51.366;12.350;2023-04-20T04:24:05;100589.28;;;4.81;100.00
66681;BME280;53575;51.366;12.350;2023-04-20T04:26:31;100588.84;;;5.00;100.00
66681;BME280;53575;51.366;12.350;2023-04-20T04:28:57;100571.72;;;5.08;100.00
66681;BME280;53575;51.366;12.350;2023-04-20T04:31:23;100571.16;;;5.23;100.00
66681;BME280;53575;51.366;12.350;2023-04-20T04:33:49;100578.88;;;5.22;100.00
66681;BME280;53575;51.366;12.350;2023-04-20T04:36:14;100591.44;;;5.02;100.00
66681;BME280;53575;51.366;12.350;2023-04-20T04:38:40;100588.16;;;5.10;100.00
66681;BME280;53575;51.366;12.350;2023-04-20T04:41:11;100593.97;;;4.99;100.00
66681;BME280;53575;51.366;12.350;2023-04-20T04:43:39;100602.72;;;5.04;100.00
66681;BME280;53575;51.366;12.350;2023-04-20T04:46:09;100601.97;;;5.11;100.00
66681;BME280;53575;51.366;12.350;2023-04-20T04:48:35;100607.28;;;5.17;100.00
66681;BME280;53575;51.366;12.350;2023-04-20T04:51:01;100604.47;;;5.06;100.00
66681;BME280;53575;51.366;12.350;2023-04-20T04:53:26;100599.53;;;5.19;100.00
66681;BME280;53575;51.366;12.350;2023-04-20T04:55:52;100599.66;;;5.23;100.00
66681;BME280;53575;51.366;12.350;2023-04-20T04:58:17;100598.81;;;5.24;100.00
66681;BME280;53575;51.366;12.350;2023-04-20T05:00:43;100608.09;;;5.14;100.00
66681;BME280;53575;51.366;12.350;2023-04-20T05:03:08;100611.69;;;5.20;100.00
66681;BME280;53575;51.366;12.350;2023-04-20T05:05:33;100606.72;;;5.32;100.00
66681;BME280;53575;51.366;12.350;2023-04-20T05:07:59;100615.66;;;5.46;100.00
66681;BME280;53575;51.366;12.350;2023-04-20T05:10:25;100617.28;;;5.41;100.00
66681;BME280;53575;51.366;12.350;2023-04-20T05:12:50;100616.53;;;5.48;100.00
66681;BME280;53575;51.366;12.350;2023-04-20T05:15:16;100612.44;;;5.58;100.00
66681;BME280;53575;51.366;12.350;2023-04-20T05:17:42;100615.03;;;5.58;100.00
66681;BME280;53575;51.366;12.350;2023-04-20T05:20:08;100607.38;;;5.66;100.00
66681;BME280;53575;51.366;12.350;2023-04-20T05:22:36;100606.66;;;5.73;100.00
66681;BME280;53575;51.366;12.350;2023-04-20T05:25:03;100612.81;;;5.79;100.00
66681;BME280;53575;51.366;12.350;2023-04-20T05:27:28;100616.25;;;5.78;100.00
66681;BME280;53575;51.366;12.350;2023-04-20T05:29:53;100618.56;;;5.63;100.00
66681;BME280;53575;51.366;12.350;2023-04-20T05:32:19;100627.06;;;5.56;100.00
66681;BME280;53575;51.366;12.350;2023-04-20T05:34:44;100631.50;;;5.61;100.00
66681;BME280;53575;51.366;12.350;2023-04-20T05:37:10;100633.31;;;5.67;100.00
66681;BME280;53575;51.366;12.350;2023-04-20T05:39:36;100628.22;;;5.72;100.00
66681;BME280;53575;51.366;12.350;2023-04-20T05:42:01;100627.41;;;5.74;100.00
66681;BME280;53575;51.366;12.350;2023-04-20T05:44:26;100644.56;;;5.66;100.00
66681;BME280;53575;51.366;12.350;2023-04-20T05:46:52;100643.28;;;5.91;100.00
66681;BME280;53575;51.366;12.350;2023-04-20T05:49:17;100645.84;;;5.90;100.00
66681;BME280;53575;51.366;12.350;2023-04-20T05:51:43;100645.28;;;6.03;100.00
66681;BME280;53575;51.366;12.350;2023-04-20T05:54:08;100643.34;;;5.93;100.00
66681;BME280;53575;51.366;12.350;2023-04-20T05:56:34;100637.38;;;5.98;100.00
66681;BME280;53575;51.366;12.350;2023-04-20T05:59:00;100653.13;;;6.09;99.96
66681;BME280;53575;51.366;12.350;2023-04-20T06:01:25;100658.03;;;5.92;100.00
66681;BME280;53575;51.366;12.350;2023-04-20T06:03:51;100659.72;;;5.92;100.00
66681;BME280;53575;51.366;12.350;2023-04-20T06:06:17;100656.50;;;6.03;100.00
66681;BME280;53575;51.366;12.350;2023-04-20T06:08:42;100665.44;;;6.19;98.03
66681;BME280;53575;51.366;12.350;2023-04-20T06:11:08;100664.63;;;6.23;98.67
66681;BME280;53575;51.366;12.350;2023-04-20T06:13:33;100670.69;;;6.22;98.59
66681;BME280;53575;51.366;12.350;2023-04-20T06:15:59;100674.66;;;6.53;97.12
66681;BME280;53575;51.366;12.350;2023-04-20T06:18:24;100673.47;;;6.34;96.24
66681;BME280;53575;51.366;12.350;2023-04-20T06:20:49;100665.22;;;6.60;95.09
66681;BME280;53575;51.366;12.350;2023-04-20T06:23:15;100671.44;;;6.68;94.61
66681;BME280;53575;51.366;12.350;2023-04-20T06:25:41;100671.50;;;6.74;94.09
66681;BME280;53575;51.366;12.350;2023-04-20T06:28:06;100669.22;;;6.96;92.65
66681;BME280;53575;51.366;12.350;2023-04-20T06:30:33;100668.53;;;7.09;92.12
66681;BME280;53575;51.366;12.350;2023-04-20T06:32:59;100668.72;;;7.23;90.27
66681;BME280;53575;51.366;12.350;2023-04-20T06:35:25;100681.56;;;7.12;89.53
66681;BME280;53575;51.366;12.350;2023-04-20T06:37:51;100679.78;;;7.08;88.99
66681;BME280;53575;51.366;12.350;2023-04-20T06:40:17;100677.19;;;7.09;88.78
66681;BME280;53575;51.366;12.350;2023-04-20T06:42:43;100689.25;;;7.03;87.94
66681;BME280;53575;51.366;12.350;2023-04-20T06:45:09;100684.06;;;7.03;88.25
66681;BME280;53575;51.366;12.350;2023-04-20T06:47:34;100684.94;;;7.05;88.47
66681;BME280;53575;51.366;12.350;2023-04-20T06:50:01;100683.31;;;7.13;88.07
66681;BME280;53575;51.366;12.350;2023-04-20T06:52:29;100679.94;;;7.19;87.24
66681;BME280;53575;51.366;12.350;2023-04-20T06:54:57;100688.59;;;7.19;87.96
66681;BME280;53575;51.366;12.350;2023-04-20T06:57:23;100686.94;;;7.23;88.47
66681;BME280;53575;51.366;12.350;2023-04-20T06:59:49;100691.31;;;7.28;86.89
66681;BME280;53575;51.366;12.350;2023-04-20T07:02:14;100685.25;;;7.28;85.79
66681;BME280;53575;51.366;12.350;2023-04-20T07:04:40;100683.63;;;7.35;84.96
66681;BME280;53575;51.366;12.350;2023-04-20T07:07:05;100693.03;;;7.26;86.48
66681;BME280;53575;51.366;12.350;2023-04-20T07:09:30;100688.81;;;7.36;86.58
66681;BME280;53575;51.366;12.350;2023-04-20T07:11:56;100684.31;;;7.23;86.07
66681;BME280;53575;51.366;12.350;2023-04-20T07:14:22;100682.13;;;7.55;87.76
66681;BME280;53575;51.366;12.350;2023-04-20T07:16:51;100678.06;;;7.77;85.80
66681;BME280;53575;51.366;12.350;2023-04-20T07:19:17;100683.38;;;7.89;85.28
66681;BME280;53575;51.366;12.350;2023-04-20T07:21:42;100683.38;;;7.86;83.35
66681;BME280;53575;51.366;12.350;2023-04-20T07:24:07;100687.38;;;7.58;83.71
66681;BME280;53575;51.366;12.350;2023-04-20T07:26:33;100689.91;;;7.53;85.27
66681;BME280;53575;51.366;12.350;2023-04-20T07:28:58;100681.22;;;7.51;83.51
66681;BME280;53575;51.366;12.350;2023-04-20T07:31:24;100683.91;;;7.56;82.54
66681;BME280;53575;51.366;12.350;2023-04-20T07:33:49;100674.31;;;7.55;82.23
66681;BME280;53575;51.366;12.350;2023-04-20T07:36:15;100682.06;;;7.49;82.17
66681;BME280;53575;51.366;12.350;2023-04-20T07:38:40;100675.63;;;7.21;83.60
66681;BME280;53575;51.366;12.350;2023-04-20T07:41:09;100674.97;;;6.73;85.46
66681;BME280;53575;51.366;12.350;2023-04-20T07:43:35;100680.91;;;6.68;86.65
66681;BME280;53575;51.366;12.350;2023-04-20T07:46:00;100687.81;;;6.64;86.51
66681;BME280;53575;51.366;12.350;2023-04-20T07:48:25;100680.91;;;6.68;87.48
66681;BME280;53575;51.366;12.350;2023-04-20T07:50:51;100680.22;;;6.76;86.11
66681;BME280;53575;51.366;12.350;2023-04-20T07:53:16;100689.72;;;6.76;87.70
66681;BME280;53575;51.366;12.350;2023-04-20T07:55:42;100684.81;;;6.96;87.41
66681;BME280;53575;51.366;12.350;2023-04-20T07:58:07;100691.06;;;7.08;85.58
66681;BME280;53575;51.366;12.350;2023-04-20T08:00:33;100683.81;;;7.48;85.84
66681;BME280;53575;51.366;12.350;2023-04-20T08:02:58;100694.72;;;7.96;83.86
66681;BME280;53575;51.366;12.350;2023-04-20T08:05:23;100689.09;;;8.38;82.21
66681;BME280;53575;51.366;12.350;2023-04-20T08:07:49;100691.13;;;8.71;78.96
66681;BME280;53575;51.366;12.350;2023-04-20T08:10:15;100692.94;;;8.82;77.05
66681;BME280;53575;51.366;12.350;2023-04-20T08:12:40;100690.28;;;8.75;76.80
66681;BME280;53575;51.366;12.350;2023-04-20T08:15:06;100697.09;;;8.61;77.31
66681;BME280;53575;51.366;12.350;2023-04-20T08:17:32;100693.63;;;8.62;78.08
66681;BME280;53575;51.366;12.350;2023-04-20T08:19:58;100684.13;;;8.63;77.94
66681;BME280;53575;51.366;12.350;2023-04-20T08:22:23;100685.75;;;8.54;76.61
66681;BME280;53575;51.366;12.350;2023-04-20T08:24:51;100676.66;;;8.10;79.74
66681;BME280;53575;51.366;12.350;2023-04-20T08:27:17;100669.63;;;7.99;78.80
66681;BME280;53575;51.366;12.350;2023-04-20T08:29:42;100659.28;;;8.05;79.14
66681;BME280;53575;51.366;12.350;2023-04-20T08:32:07;100663.59;;;8.02;79.37
66681;BME280;53575;51.366;12.350;2023-04-20T08:34:33;100667.00;;;7.98;80.37
66681;BME280;53575;51.366;12.350;2023-04-20T08:36:59;100666.03;;;7.87;79.47
66681;BME280;53575;51.366;12.350;2023-04-20T08:39:24;100655.63;;;7.90;80.99
66681;BME280;53575;51.366;12.350;2023-04-20T08:41:50;100675.66;;;7.94;80.34
66681;BME280;53575;51.366;12.350;2023-04-20T08:44:19;100663.38;;;7.85;79.89
66681;BME280;53575;51.366;12.350;2023-04-20T08:46:46;100663.91;;;7.53;80.93
66681;BME280;53575;51.366;12.350;2023-04-20T08:49:14;100662.97;;;7.47;82.66
66681;BME280;53575;51.366;12.350;2023-04-20T08:51:40;100664.75;;;7.51;82.66
66681;BME280;53575;51.366;12.350;2023-04-20T08:54:05;100667.53;;;7.66;82.63
66681;BME280;53575;51.366;12.350;2023-04-20T08:56:39;100674.59;;;7.78;82.39
66681;BME280;53575;51.366;12.350;2023-04-20T08:59:05;100673.28;;;8.18;81.56
66681;BME280;53575;51.366;12.350;2023-04-20T09:01:37;100666.66;;;8.51;80.25
66681;BME280;53575;51.366;12.350;2023-04-20T09:04:26;100668.50;;;8.67;78.87
66681;BME280;53575;51.366;12.350;2023-04-20T09:06:54;100664.31;;;8.91;78.69
66681;BME280;53575;51.366;12.350;2023-04-20T09:09:21;100672.41;;;9.41;75.92
66681;BME280;53575;51.366;12.350;2023-04-20T09:12:06;100662.06;;;9.76;73.30
66681;BME280;53575;51.366;12.350;2023-04-20T09:14:44;100670.72;;;9.51;74.10
66681;BME280;53575;51.366;12.350;2023-04-20T09:17:10;100670.66;;;9.42;73.96
66681;BME280;53575;51.366;12.350;2023-04-20T09:19:39;100675.84;;;9.31;75.75
66681;BME280;53575;51.366;12.350;2023-04-20T09:22:04;100685.47;;;9.43;73.79
66681;BME280;53575;51.366;12.350;2023-04-20T09:24:35;100682.97;;;9.73;72.83
66681;BME280;53575;51.366;12.350;2023-04-20T09:27:01;100678.66;;;9.95;73.42
66681;BME280;53575;51.366;12.350;2023-04-20T09:29:27;100676.97;;;10.08;72.43
66681;BME280;53575;51.366;12.350;2023-04-20T09:31:54;100674.34;;;10.22;70.23
66681;BME280;53575;51.366;12.350;2023-04-20T09:34:21;100679.56;;;10.17;70.17
66681;BME280;53575;51.366;12.350;2023-04-20T09:36:47;100673.53;;;10.44;71.74
66681;BME280;53575;51.366;12.350;2023-04-20T09:39:20;100669.97;;;11.08;68.46
66681;BME280;53575;51.366;12.350;2023-04-20T09:41:47;100671.59;;;11.44;67.38
66681;BME280;53575;51.366;12.350;2023-04-20T09:44:14;100666.19;;;11.81;66.46
66681;BME280;53575;51.366;12.350;2023-04-20T09:46:41;100664.59;;;11.54;65.94
66681;BME280;53575;51.366;12.350;2023-04-20T09:49:09;100669.06;;;11.26;67.09
66681;BME280;53575;51.366;12.350;2023-04-20T09:51:37;100670.81;;;11.22;67.83
66681;BME280;53575;51.366;12.350;2023-04-20T09:54:04;100672.59;;;11.05;68.51
66681;BME280;53575;51.366;12.350;2023-04-20T09:56:31;100668.25;;;11.01;68.17
66681;BME280;53575;51.366;12.350;2023-04-20T09:58:58;100664.72;;;11.19;67.76
66681;BME280;53575;51.366;12.350;2023-04-20T10:01:24;100675.16;;;11.28;66.94
66681;BME280;53575;51.366;12.350;2023-04-20T10:03:51;100678.63;;;11.32;65.67
66681;BME280;53575;51.366;12.350;2023-04-20T10:06:23;100672.59;;;11.05;67.46
66681;BME280;53575;51.366;12.350;2023-04-20T10:08:51;100682.19;;;10.98;68.18
66681;BME280;53575;51.366;12.350;2023-04-20T10:11:49;100688.28;;;11.11;65.35
66681;BME280;53575;51.366;12.350;2023-04-20T10:14:20;100683.06;;;11.08;65.70
66681;BME280;53575;51.366;12.350;2023-04-20T10:16:59;100684.75;;;11.34;66.25
66681;BME280;53575;51.366;12.350;2023-04-20T10:19:45;100682.63;;;12.09;63.92
66681;BME280;53575;51.366;12.350;2023-04-20T10:22:23;100674.63;;;12.31;62.77
66681;BME280;53575;51.366;12.350;2023-04-20T10:24:49;100676.25;;;12.49;62.26
66681;BME280;53575;51.366;12.350;2023-04-20T10:27:16;100670.78;;;12.75;59.57
66681;BME280;53575;51.366;12.350;2023-04-20T10:29:42;100662.72;;;12.95;59.83
66681;BME280;53575;51.366;12.350;2023-04-20T10:32:07;100662.25;;;13.37;58.30
66681;BME280;53575;51.366;12.350;2023-04-20T10:34:34;100663.78;;;12.75;60.56
66681;BME280;53575;51.366;12.350;2023-04-20T10:37:10;100664.13;;;13.28;59.54
66681;BME280;53575;51.366;12.350;2023-04-20T10:39:43;100658.78;;;13.37;57.27
66681;BME280;53575;51.366;12.350;2023-04-20T10:42:09;100648.91;;;13.56;57.53
66681;BME280;53575;51.366;12.350;2023-04-20T10:44:34;100640.94;;;13.62;56.66
66681;BME280;53575;51.366;12.350;2023-04-20T10:47:00;100632.94;;;13.70;56.13
66681;BME280;53575;51.366;12.350;2023-04-20T10:49:26;100617.25;;;13.65;56.22
66681;BME280;53575;51.366;12.350;2023-04-20T10:51:53;100634.16;;;13.46;57.11
66681;BME280;53575;51.366;12.350;2023-04-20T10:54:19;100634.88;;;12.83;58.04
66681;BME280;53575;51.366;12.350;2023-04-20T10:56:47;100633.41;;;12.53;58.76
66681;BME280;53575;51.366;12.350;2023-04-20T10:59:18;100638.31;;;11.74;62.04
66681;BME280;53575;51.366;12.350;2023-04-20T11:01:44;100636.69;;;11.47;62.80
66681;BME280;53575;51.366;12.350;2023-04-20T11:04:11;100636.63;;;11.62;62.67
66681;BME280;53575;51.366;12.350;2023-04-20T11:06:38;100630.41;;;11.82;62.73
66681;BME280;53575;51.366;12.350;2023-04-20T11:09:21;100620.63;;;12.11;61.43
66681;BME280;53575;51.366;12.350;2023-04-20T11:12:07;100628.94;;;11.33;63.76
66681;BME280;53575;51.366;12.350;2023-04-20T11:14:35;100625.41;;;11.37;64.24
66681;BME280;53575;51.366;12.350;2023-04-20T11:17:04;100626.47;;;10.84;65.86
66681;BME280;53575;51.366;12.350;2023-04-20T11:19:32;100622.03;;;11.05;66.82
66681;BME280;53575;51.366;12.350;2023-04-20T11:21:58;100624.66;;;11.05;66.65
66681;BME280;53575;51.366;12.350;2023-04-20T11:24:25;100628.19;;;10.90;66.98
66681;BME280;53575;51.366;12.350;2023-04-20T11:26:52;100620.38;;;10.71;68.35
66681;BME280;53575;51.366;12.350;2023-04-20T11:29:37;100619.50;;;10.79;68.05
66681;BME280;53575;51.366;12.350;2023-04-20T11:32:09;100616.88;;;10.71;67.98
66681;BME280;53575;51.366;12.350;2023-04-20T11:34:36;100621.28;;;10.46;68.88
66681;BME280;53575;51.366;12.350;2023-04-20T11:37:06;100622.97;;;10.15;71.33
66681;BME280;53575;51.366;12.350;2023-04-20T11:39:32;100624.72;;;10.10;71.90
66681;BME280;53575;51.366;12.350;2023-04-20T11:41:58;100621.28;;;10.15;71.65
66681;BME280;53575;51.366;12.350;2023-04-20T11:44:25;100611.69;;;10.13;71.97
66681;BME280;53575;51.366;12.350;2023-04-20T11:46:51;100622.16;;;10.37;70.86
66681;BME280;53575;51.366;12.350;2023-04-20T11:49:25;100620.44;;;10.32;71.15
66681;BME280;53575;51.366;12.350;2023-04-20T11:51:51;100614.28;;;10.07;71.94
66681;BME280;53575;51.366;12.350;2023-04-20T11:54:17;100618.56;;;9.63;74.09
66681;BME280;53575;51.366;12.350;2023-04-20T11:56:46;100613.41;;;9.77;74.48
66681;BME280;53575;51.366;12.350;2023-04-20T11:59:12;100615.97;;;9.72;74.11
66681;BME280;53575;51.366;12.350;2023-04-20T12:01:43;100615.97;;;9.63;74.35
66681;BME280;53575;51.366;12.350;2023-04-20T12:04:09;100617.69;;;9.63;75.09
66681;BME280;53575;51.366;12.350;2023-04-20T12:06:35;100619.31;;;9.28;76.09
66681;BME280;53575;51.366;12.350;2023-04-20T12:09:00;100612.34;;;9.26;76.63
66681;BME280;53575;51.366;12.350;2023-04-20T12:11:26;100606.28;;;9.25;76.18
66681;BME280;53575;51.366;12.350;2023-04-20T12:13:51;100601.97;;;9.41;76.03
66681;BME280;53575;51.366;12.350;2023-04-20T12:16:19;100597.75;;;10.12;73.36
66681;BME280;53575;51.366;12.350;2023-04-20T12:18:44;100593.41;;;10.51;71.40
66681;BME280;53575;51.366;12.350;2023-04-20T12:21:10;100596.88;;;10.48;71.51
66681;BME280;53575;51.366;12.350;2023-04-20T12:23:36;100596.03;;;10.46;71.24
66681;BME280;53575;51.366;12.350;2023-04-20T12:26:02;100605.59;;;10.66;71.23
66681;BME280;53575;51.366;12.350;2023-04-20T12:28:29;100597.78;;;10.51;72.88
66681;BME280;53575;51.366;12.350;2023-04-20T12:30:54;100602.97;;;10.60;72.59
66681;BME280;53575;51.366;12.350;2023-04-20T12:33:20;100601.19;;;10.76;71.84
66681;BME280;53575;51.366;12.350;2023-04-20T12:35:45;100596.88;;;10.62;72.56
66681;BME280;53575;51.366;12.350;2023-04-20T12:38:11;100594.22;;;10.74;72.25
66681;BME280;53575;51.366;12.350;2023-04-20T12:40:36;100584.63;;;10.75;72.38